sensor_id;sensor_type;location;lat;lon;timestamp;P1;durP1;ratioP1;P2;durP2;ratioP2
27313;SDS011;14800;48.174;9.798;2022-08-01T00:01:53;1.83;;;1.60;;
27313;SDS011;14800;48.174;9.798;2022-08-01T00:04:19;1.98;;;1.50;;
27313;SDS011;14800;48.174;9.798;2022-08-01T00:06:44;1.65;;;1.55;;
27313;SDS011;14800;48.174;9.798;2022-08-01T00:09:10;1.63;;;1.50;;
27313;SDS011;14800;48.174;9.798;2022-08-01T00:11:36;1.70;;;1.60;;
27313;SDS011;14800;48.174;9.798;2022-08-01T00:14:01;2.70;;;1.70;;
27313;SDS011;14800;48.174;9.798;2022-08-01T00:16:27;1.83;;;1.73;;
27313;SDS011;14800;48.174;9.798;2022-08-01T00:18:53;2.85;;;1.80;;
27313;SDS011;14800;48.174;9.798;2022-08-01T00:21:19;1.92;;;1.70;;
27313;SDS011;14800;48.174;9.798;2022-08-01T00:23:45;1.92;;;1.80;;
27313;SDS011;14800;48.174;9.798;2022-08-01T00:26:12;1.80;;;1.70;;
27313;SDS011;14800;48.174;9.798;2022-08-01T00:28:38;1.77;;;1.67;;
27313;SDS011;14800;48.174;9.798;2022-08-01T00:31:03;1.52;;;1.42;;
27313;SDS011;14800;48.174;9.798;2022-08-01T00:33:29;2.35;;;1.70;;
27313;SDS011;14800;48.174;9.798;2022-08-01T00:35:54;2.50;;;1.70;;
27313;SDS011;14800;48.174;9.798;2022-08-01T00:38:21;2.55;;;1.67;;
27313;SDS011;14800;48.174;9.798;2022-08-01T00:40:46;2.47;;;1.70;;
27313;SDS011;14800;48.174;9.798;2022-08-01T00:43:12;3.40;;;1.67;;
27313;SDS011;14800;48.174;9.798;2022-08-01T00:45:38;1.75;;;1.65;;
27313;SDS011;14800;48.174;9.798;2022-08-01T00:48:04;1.70;;;1.60;;
27313;SDS011;14800;48.174;9.798;2022-08-01T00:50:29;1.60;;;1.50;;
27313;SDS011;14800;48.174;9.798;2022-08-01T00:52:55;1.70;;;1.60;;
27313;SDS011;14800;48.174;9.798;2022-08-01T00:55:22;1.50;;;1.40;;
27313;SDS011;14800;48.174;9.798;2022-08-01T00:57:48;2.45;;;1.40;;
27313;SDS011;14800;48.174;9.798;2022-08-01T01:00:15;2.65;;;1.50;;
27313;SDS011;14800;48.174;9.798;2022-08-01T01:02:40;1.80;;;1.70;;
27313;SDS011;14800;48.174;9.798;2022-08-01T01:05:06;1.70;;;1.60;;
27313;SDS011;14800;48.174;9.798;2022-08-01T01:07:34;2.08;;;1.63;;
27313;SDS011;14800;48.174;9.798;2022-08-01T01:10:32;1.95;;;1.80;;
27313;SDS011;14800;48.174;9.798;2022-08-01T01:13:11;1.80;;;1.70;;
27313;SDS011;14800;48.174;9.798;2022-08-01T01:16:00;1.60;;;1.50;;
27313;SDS011;14800;48.174;9.798;2022-08-01T01:26:59;3.47;;;1.70;;
27313;SDS011;14800;48.174;9.798;2022-08-01T01:29:37;1.90;;;1.80;;
27313;SDS011;14800;48.174;9.798;2022-08-01T01:32:07;1.38;;;1.35;;
27313;SDS011;14800;48.174;9.798;2022-08-01T01:34:45;1.67;;;1.58;;
27313;SDS011;14800;48.174;9.798;2022-08-01T01:37:15;1.35;;;1.25;;
27313;SDS011;14800;48.174;9.798;2022-08-01T01:39:44;2.25;;;1.55;;
27313;SDS011;14800;48.174;9.798;2022-08-01T01:42:11;1.70;;;1.60;;
27313;SDS011;14800;48.174;9.798;2022-08-01T01:44:37;2.78;;;1.55;;
27313;SDS011;14800;48.174;9.798;2022-08-01T01:47:04;1.80;;;1.70;;
27313;SDS011;14800;48.174;9.798;2022-08-01T01:49:31;1.70;;;1.60;;
27313;SDS011;14800;48.174;9.798;2022-08-01T01:51:57;1.90;;;1.60;;
27313;SDS011;14800;48.174;9.798;2022-08-01T01:54:27;2.13;;;1.92;;
27313;SDS011;14800;48.174;9.798;2022-08-01T01:56:58;2.28;;;1.90;;
27313;SDS011;14800;48.174;9.798;2022-08-01T01:59:27;2.28;;;2.08;;
27313;SDS011;14800;48.174;9.798;2022-08-01T02:01:55;3.25;;;2.30;;
27313;SDS011;14800;48.174;9.798;2022-08-01T02:04:23;2.50;;;2.13;;
27313;SDS011;14800;48.174;9.798;2022-08-01T02:06:50;3.38;;;2.35;;
27313;SDS011;14800;48.174;9.798;2022-08-01T02:09:17;3.63;;;2.35;;
27313;SDS011;14800;48.174;9.798;2022-08-01T02:11:46;2.72;;;2.53;;
27313;SDS011;14800;48.174;9.798;2022-08-01T02:14:13;2.78;;;2.47;;
27313;SDS011;14800;48.174;9.798;2022-08-01T02:16:40;3.35;;;2.33;;
27313;SDS011;14800;48.174;9.798;2022-08-01T02:19:09;3.45;;;2.55;;
27313;SDS011;14800;48.174;9.798;2022-08-01T02:24:09;3.97;;;2.38;;
27313;SDS011;14800;48.174;9.798;2022-08-01T02:26:42;2.72;;;2.20;;
27313;SDS011;14800;48.174;9.798;2022-08-01T02:29:13;3.13;;;2.30;;
27313;SDS011;14800;48.174;9.798;2022-08-01T02:31:44;2.80;;;2.20;;
27313;SDS011;14800;48.174;9.798;2022-08-01T02:34:13;2.65;;;2.00;;
27313;SDS011;14800;48.174;9.798;2022-08-01T02:36:42;2.85;;;2.20;;
27313;SDS011;14800;48.174;9.798;2022-08-01T02:39:13;2.30;;;2.05;;
27313;SDS011;14800;48.174;9.798;2022-08-01T02:41:41;2.88;;;1.80;;
27313;SDS011;14800;48.174;9.798;2022-08-01T02:44:10;1.80;;;1.70;;
27313;SDS011;14800;48.174;9.798;2022-08-01T02:46:54;2.28;;;1.80;;
27313;SDS011;14800;48.174;9.798;2022-08-01T02:49:23;1.70;;;1.60;;
27313;SDS011;14800;48.174;9.798;2022-08-01T02:51:51;2.47;;;1.90;;
27313;SDS011;14800;48.174;9.798;2022-08-01T02:54:19;3.30;;;1.75;;
27313;SDS011;14800;48.174;9.798;2022-08-01T02:56:47;2.42;;;1.70;;
27313;SDS011;14800;48.174;9.798;2022-08-01T02:59:16;2.25;;;1.63;;
27313;SDS011;14800;48.174;9.798;2022-08-01T03:01:45;2.20;;;2.05;;
27313;SDS011;14800;48.174;9.798;2022-08-01T03:04:12;2.63;;;2.08;;
27313;SDS011;14800;48.174;9.798;2022-08-01T03:06:39;3.05;;;2.38;;
27313;SDS011;14800;48.174;9.798;2022-08-01T03:09:06;2.83;;;2.40;;
27313;SDS011;14800;48.174;9.798;2022-08-01T03:11:33;2.97;;;2.58;;
27313;SDS011;14800;48.174;9.798;2022-08-01T03:14:03;2.80;;;2.60;;
27313;SDS011;14800;48.174;9.798;2022-08-01T03:16:32;4.30;;;2.45;;
27313;SDS011;14800;48.174;9.798;2022-08-01T03:19:00;3.00;;;2.70;;
27313;SDS011;14800;48.174;9.798;2022-08-01T03:21:27;3.20;;;2.90;;
27313;SDS011;14800;48.174;9.798;2022-08-01T03:23:54;2.60;;;2.40;;
27313;SDS011;14800;48.174;9.798;2022-08-01T03:26:26;4.53;;;2.58;;
27313;SDS011;14800;48.174;9.798;2022-08-01T03:28:55;2.60;;;2.40;;
27313;SDS011;14800;48.174;9.798;2022-08-01T03:31:24;3.65;;;2.75;;
27313;SDS011;14800;48.174;9.798;2022-08-01T03:33:51;3.97;;;2.75;;
27313;SDS011;14800;48.174;9.798;2022-08-01T03:36:17;2.88;;;2.60;;
27313;SDS011;14800;48.174;9.798;2022-08-01T03:38:48;3.53;;;2.70;;
27313;SDS011;14800;48.174;9.798;2022-08-01T03:41:18;4.10;;;2.80;;
27313;SDS011;14800;48.174;9.798;2022-08-01T03:43:55;2.70;;;2.50;;
27313;SDS011;14800;48.174;9.798;2022-08-01T03:46:27;2.42;;;2.22;;
27313;SDS011;14800;48.174;9.798;2022-08-01T03:48:58;3.50;;;2.83;;
27313;SDS011;14800;48.174;9.798;2022-08-01T03:51:26;5.25;;;2.78;;
27313;SDS011;14800;48.174;9.798;2022-08-01T03:53:53;3.17;;;2.88;;
27313;SDS011;14800;48.174;9.798;2022-08-01T03:56:20;2.78;;;2.58;;
27313;SDS011;14800;48.174;9.798;2022-08-01T03:58:47;4.45;;;2.67;;
27313;SDS011;14800;48.174;9.798;2022-08-01T04:01:14;3.03;;;2.83;;
27313;SDS011;14800;48.174;9.798;2022-08-01T04:03:40;3.35;;;2.80;;
27313;SDS011;14800;48.174;9.798;2022-08-01T04:06:06;4.40;;;2.85;;
27313;SDS011;14800;48.174;9.798;2022-08-01T04:08:36;3.17;;;2.88;;
27313;SDS011;14800;48.174;9.798;2022-08-01T04:11:03;2.75;;;2.55;;
27313;SDS011;14800;48.174;9.798;2022-08-01T04:13:30;3.30;;;2.80;;
27313;SDS011;14800;48.174;9.798;2022-08-01T04:15:56;4.95;;;2.70;;
27313;SDS011;14800;48.174;9.798;2022-08-01T04:18:22;3.17;;;2.45;;
27313;SDS011;14800;48.174;9.798;2022-08-01T04:20:47;2.92;;;2.30;;
27313;SDS011;14800;48.174;9.798;2022-08-01T04:23:15;2.88;;;2.30;;
27313;SDS011;14800;48.174;9.798;2022-08-01T04:25:43;5.75;;;2.90;;
27313;SDS011;14800;48.174;9.798;2022-08-01T04:28:12;3.65;;;2.60;;
27313;SDS011;14800;48.174;9.798;2022-08-01T04:30:42;4.03;;;3.00;;
27313;SDS011;14800;48.174;9.798;2022-08-01T04:33:10;3.92;;;2.90;;
27313;SDS011;14800;48.174;9.798;2022-08-01T04:35:41;3.78;;;2.97;;
27313;SDS011;14800;48.174;9.798;2022-08-01T04:38:10;2.78;;;2.58;;
27313;SDS011;14800;48.174;9.798;2022-08-01T04:40:38;3.67;;;2.70;;
27313;SDS011;14800;48.174;9.798;2022-08-01T04:43:08;3.35;;;2.47;;
27313;SDS011;14800;48.174;9.798;2022-08-01T04:45:34;2.97;;;2.70;;
27313;SDS011;14800;48.174;9.798;2022-08-01T04:48:00;3.35;;;2.70;;
27313;SDS011;14800;48.174;9.798;2022-08-01T04:50:26;2.88;;;2.67;;
27313;SDS011;14800;48.174;9.798;2022-08-01T04:52:53;3.22;;;2.90;;
27313;SDS011;14800;48.174;9.798;2022-08-01T04:55:18;2.63;;;2.42;;
27313;SDS011;14800;48.174;9.798;2022-08-01T04:57:44;3.03;;;2.65;;
27313;SDS011;14800;48.174;9.798;2022-08-01T05:00:12;3.72;;;2.45;;
27313;SDS011;14800;48.174;9.798;2022-08-01T05:02:38;3.20;;;2.65;;
27313;SDS011;14800;48.174;9.798;2022-08-01T05:05:04;3.70;;;2.78;;
27313;SDS011;14800;48.174;9.798;2022-08-01T05:07:31;3.60;;;2.60;;
27313;SDS011;14800;48.174;9.798;2022-08-01T05:09:57;3.10;;;2.80;;
27313;SDS011;14800;48.174;9.798;2022-08-01T05:12:23;3.67;;;2.50;;
27313;SDS011;14800;48.174;9.798;2022-08-01T05:14:49;2.70;;;2.42;;
27313;SDS011;14800;48.174;9.798;2022-08-01T05:17:14;3.17;;;2.60;;
27313;SDS011;14800;48.174;9.798;2022-08-01T05:19:41;4.43;;;2.60;;
27313;SDS011;14800;48.174;9.798;2022-08-01T05:22:08;4.05;;;2.47;;
27313;SDS011;14800;48.174;9.798;2022-08-01T05:24:35;2.60;;;2.40;;
27313;SDS011;14800;48.174;9.798;2022-08-01T05:27:02;4.00;;;2.22;;
27313;SDS011;14800;48.174;9.798;2022-08-01T05:29:29;5.05;;;2.40;;
27313;SDS011;14800;48.174;9.798;2022-08-01T05:31:55;3.22;;;2.35;;
27313;SDS011;14800;48.174;9.798;2022-08-01T05:34:21;5.97;;;2.50;;
27313;SDS011;14800;48.174;9.798;2022-08-01T05:36:47;5.43;;;2.33;;
27313;SDS011;14800;48.174;9.798;2022-08-01T05:39:13;2.63;;;2.35;;
27313;SDS011;14800;48.174;9.798;2022-08-01T05:41:40;7.35;;;2.58;;
27313;SDS011;14800;48.174;9.798;2022-08-01T05:44:05;15.90;;;2.60;;
27313;SDS011;14800;48.174;9.798;2022-08-01T05:46:32;4.93;;;2.60;;
27313;SDS011;14800;48.174;9.798;2022-08-01T05:48:58;6.72;;;2.45;;
27313;SDS011;14800;48.174;9.798;2022-08-01T05:51:25;6.18;;;2.20;;
27313;SDS011;14800;48.174;9.798;2022-08-01T05:53:51;2.25;;;1.88;;
27313;SDS011;14800;48.174;9.798;2022-08-01T05:56:18;3.88;;;2.10;;
27313;SDS011;14800;48.174;9.798;2022-08-01T05:58:44;4.85;;;2.20;;
27313;SDS011;14800;48.174;9.798;2022-08-01T06:01:09;2.97;;;1.83;;
27313;SDS011;14800;48.174;9.798;2022-08-01T06:03:35;4.22;;;1.90;;
27313;SDS011;14800;48.174;9.798;2022-08-01T06:06:01;2.08;;;1.85;;
27313;SDS011;14800;48.174;9.798;2022-08-01T06:08:27;7.30;;;2.10;;
27313;SDS011;14800;48.174;9.798;2022-08-01T06:10:53;2.47;;;1.70;;
27313;SDS011;14800;48.174;9.798;2022-08-01T06:13:19;3.08;;;1.90;;
27313;SDS011;14800;48.174;9.798;2022-08-01T06:15:45;2.95;;;1.73;;
27313;SDS011;14800;48.174;9.798;2022-08-01T06:18:11;1.95;;;1.80;;
27313;SDS011;14800;48.174;9.798;2022-08-01T06:20:37;1.80;;;1.70;;
27313;SDS011;14800;48.174;9.798;2022-08-01T06:23:03;1.77;;;1.67;;
27313;SDS011;14800;48.174;9.798;2022-08-01T06:25:29;2.40;;;1.77;;
27313;SDS011;14800;48.174;9.798;2022-08-01T06:27:55;2.58;;;1.90;;
27313;SDS011;14800;48.174;9.798;2022-08-01T06:30:20;1.98;;;1.88;;
27313;SDS011;14800;48.174;9.798;2022-08-01T06:32:46;2.85;;;1.88;;
27313;SDS011;14800;48.174;9.798;2022-08-01T06:35:12;2.45;;;1.85;;
27313;SDS011;14800;48.174;9.798;2022-08-01T06:37:39;1.90;;;1.80;;
27313;SDS011;14800;48.174;9.798;2022-08-01T06:40:05;3.80;;;1.90;;
27313;SDS011;14800;48.174;9.798;2022-08-01T06:42:33;1.95;;;1.75;;
27313;SDS011;14800;48.174;9.798;2022-08-01T06:45:05;2.13;;;1.90;;
27313;SDS011;14800;48.174;9.798;2022-08-01T06:47:32;3.70;;;2.20;;
27313;SDS011;14800;48.174;9.798;2022-08-01T06:49:58;3.47;;;2.20;;
27313;SDS011;14800;48.174;9.798;2022-08-01T06:52:24;3.72;;;2.20;;
27313;SDS011;14800;48.174;9.798;2022-08-01T06:54:50;3.58;;;1.90;;
27313;SDS011;14800;48.174;9.798;2022-08-01T06:57:15;3.35;;;2.22;;
27313;SDS011;14800;48.174;9.798;2022-08-01T06:59:41;2.65;;;1.98;;
27313;SDS011;14800;48.174;9.798;2022-08-01T07:02:07;1.88;;;1.67;;
27313;SDS011;14800;48.174;9.798;2022-08-01T07:04:33;2.90;;;1.98;;
27313;SDS011;14800;48.174;9.798;2022-08-01T07:06:59;1.90;;;1.80;;
27313;SDS011;14800;48.174;9.798;2022-08-01T07:09:25;1.92;;;1.73;;
27313;SDS011;14800;48.174;9.798;2022-08-01T07:11:51;2.85;;;2.13;;
27313;SDS011;14800;48.174;9.798;2022-08-01T07:14:18;2.22;;;1.90;;
27313;SDS011;14800;48.174;9.798;2022-08-01T07:16:44;3.00;;;2.05;;
27313;SDS011;14800;48.174;9.798;2022-08-01T07:19:09;2.83;;;1.98;;
27313;SDS011;14800;48.174;9.798;2022-08-01T07:21:35;2.28;;;2.08;;
27313;SDS011;14800;48.174;9.798;2022-08-01T07:24:01;2.22;;;2.03;;
27313;SDS011;14800;48.174;9.798;2022-08-01T07:26:26;2.45;;;2.08;;
27313;SDS011;14800;48.174;9.798;2022-08-01T07:28:52;2.22;;;2.00;;
27313;SDS011;14800;48.174;9.798;2022-08-01T07:31:18;3.20;;;2.00;;
27313;SDS011;14800;48.174;9.798;2022-08-01T07:33:44;2.45;;;2.00;;
27313;SDS011;14800;48.174;9.798;2022-08-01T07:36:10;2.22;;;1.98;;
27313;SDS011;14800;48.174;9.798;2022-08-01T07:38:37;2.97;;;1.90;;
27313;SDS011;14800;48.174;9.798;2022-08-01T07:41:02;2.30;;;2.10;;
27313;SDS011;14800;48.174;9.798;2022-08-01T07:43:28;2.13;;;1.92;;
27313;SDS011;14800;48.174;9.798;2022-08-01T07:45:54;3.60;;;2.00;;
27313;SDS011;14800;48.174;9.798;2022-08-01T07:48:20;2.00;;;1.90;;
27313;SDS011;14800;48.174;9.798;2022-08-01T07:50:48;1.80;;;1.70;;
27313;SDS011;14800;48.174;9.798;2022-08-01T07:53:15;1.92;;;1.75;;
27313;SDS011;14800;48.174;9.798;2022-08-01T07:55:41;1.92;;;1.80;;
27313;SDS011;14800;48.174;9.798;2022-08-01T07:58:06;2.17;;;1.60;;
27313;SDS011;14800;48.174;9.798;2022-08-01T08:00:32;1.70;;;1.50;;
27313;SDS011;14800;48.174;9.798;2022-08-01T08:02:58;3.33;;;1.77;;
27313;SDS011;14800;48.174;9.798;2022-08-01T08:05:24;1.83;;;1.73;;
27313;SDS011;14800;48.174;9.798;2022-08-01T08:07:51;2.22;;;1.52;;
27313;SDS011;14800;48.174;9.798;2022-08-01T08:10:16;2.08;;;1.92;;
27313;SDS011;14800;48.174;9.798;2022-08-01T08:12:42;1.73;;;1.63;;
27313;SDS011;14800;48.174;9.798;2022-08-01T08:15:08;2.53;;;1.58;;
27313;SDS011;14800;48.174;9.798;2022-08-01T08:17:34;1.98;;;1.60;;
27313;SDS011;14800;48.174;9.798;2022-08-01T08:20:02;2.03;;;1.55;;
27313;SDS011;14800;48.174;9.798;2022-08-01T08:22:29;1.60;;;1.50;;
27313;SDS011;14800;48.174;9.798;2022-08-01T08:24:55;2.70;;;1.60;;
27313;SDS011;14800;48.174;9.798;2022-08-01T08:27:20;1.98;;;1.60;;
27313;SDS011;14800;48.174;9.798;2022-08-01T08:29:46;1.55;;;1.45;;
27313;SDS011;14800;48.174;9.798;2022-08-01T08:32:11;1.77;;;1.67;;
27313;SDS011;14800;48.174;9.798;2022-08-01T08:34:37;1.63;;;1.52;;
27313;SDS011;14800;48.174;9.798;2022-08-01T08:37:02;1.73;;;1.63;;
27313;SDS011;14800;48.174;9.798;2022-08-01T08:39:28;1.85;;;1.60;;
27313;SDS011;14800;48.174;9.798;2022-08-01T08:41:56;2.17;;;1.60;;
27313;SDS011;14800;48.174;9.798;2022-08-01T08:44:23;1.60;;;1.50;;
27313;SDS011;14800;48.174;9.798;2022-08-01T08:46:50;2.30;;;1.65;;
27313;SDS011;14800;48.174;9.798;2022-08-01T08:49:20;1.40;;;1.30;;
27313;SDS011;14800;48.174;9.798;2022-08-01T08:51:50;1.77;;;1.67;;
27313;SDS011;14800;48.174;9.798;2022-08-01T08:54:17;1.50;;;1.40;;
27313;SDS011;14800;48.174;9.798;2022-08-01T08:56:45;7.38;;;1.50;;
27313;SDS011;14800;48.174;9.798;2022-08-01T08:59:12;1.73;;;1.63;;
27313;SDS011;14800;48.174;9.798;2022-08-01T09:01:39;1.45;;;1.35;;
27313;SDS011;14800;48.174;9.798;2022-08-01T09:04:05;1.45;;;1.35;;
27313;SDS011;14800;48.174;9.798;2022-08-01T09:06:31;3.40;;;1.40;;
27313;SDS011;14800;48.174;9.798;2022-08-01T09:08:58;2.65;;;1.38;;
27313;SDS011;14800;48.174;9.798;2022-08-01T09:11:24;1.50;;;1.40;;
27313;SDS011;14800;48.174;9.798;2022-08-01T09:16:47;1.80;;;1.40;;
27313;SDS011;14800;48.174;9.798;2022-08-01T09:19:39;1.40;;;1.30;;
27313;SDS011;14800;48.174;9.798;2022-08-01T09:22:07;1.80;;;1.38;;
27313;SDS011;14800;48.174;9.798;2022-08-01T09:24:34;1.48;;;1.30;;
27313;SDS011;14800;48.174;9.798;2022-08-01T09:27:00;1.73;;;1.55;;
27313;SDS011;14800;48.174;9.798;2022-08-01T09:29:39;1.67;;;1.58;;
27313;SDS011;14800;48.174;9.798;2022-08-01T09:32:05;1.50;;;1.40;;
27313;SDS011;14800;48.174;9.798;2022-08-01T09:34:31;1.20;;;1.10;;
27313;SDS011;14800;48.174;9.798;2022-08-01T09:36:59;1.48;;;1.38;;
27313;SDS011;14800;48.174;9.798;2022-08-01T09:39:30;1.75;;;1.10;;
27313;SDS011;14800;48.174;9.798;2022-08-01T09:44:47;1.30;;;1.30;;
27313;SDS011;14800;48.174;9.798;2022-08-01T09:47:12;1.88;;;1.30;;
27313;SDS011;14800;48.174;9.798;2022-08-01T09:49:39;3.22;;;1.50;;
27313;SDS011;14800;48.174;9.798;2022-08-01T09:52:26;2.45;;;1.40;;
27313;SDS011;14800;48.174;9.798;2022-08-01T09:54:59;5.25;;;1.42;;
27313;SDS011;14800;48.174;9.798;2022-08-01T09:57:30;1.48;;;1.38;;
27313;SDS011;14800;48.174;9.798;2022-08-01T09:59:56;1.50;;;1.40;;
27313;SDS011;14800;48.174;9.798;2022-08-01T10:02:33;1.40;;;1.30;;
27313;SDS011;14800;48.174;9.798;2022-08-01T10:05:05;3.05;;;1.40;;
27313;SDS011;14800;48.174;9.798;2022-08-01T10:07:33;3.97;;;1.60;;
27313;SDS011;14800;48.174;9.798;2022-08-01T10:10:20;1.55;;;1.30;;
27313;SDS011;14800;48.174;9.798;2022-08-01T10:12:45;1.40;;;1.30;;
27313;SDS011;14800;48.174;9.798;2022-08-01T10:15:15;1.77;;;1.13;;
27313;SDS011;14800;48.174;9.798;2022-08-01T10:17:46;1.23;;;1.20;;
27313;SDS011;14800;48.174;9.798;2022-08-01T10:20:20;1.75;;;1.20;;
27313;SDS011;14800;48.174;9.798;2022-08-01T10:22:47;1.40;;;1.20;;
27313;SDS011;14800;48.174;9.798;2022-08-01T10:25:16;2.97;;;1.25;;
27313;SDS011;14800;48.174;9.798;2022-08-01T10:27:44;1.33;;;1.10;;
27313;SDS011;14800;48.174;9.798;2022-08-01T10:30:13;1.80;;;1.20;;
27313;SDS011;14800;48.174;9.798;2022-08-01T10:32:39;1.40;;;0.98;;
27313;SDS011;14800;48.174;9.798;2022-08-01T10:35:07;0.90;;;0.90;;
27313;SDS011;14800;48.174;9.798;2022-08-01T10:37:34;1.25;;;1.15;;
27313;SDS011;14800;48.174;9.798;2022-08-01T10:40:00;1.20;;;1.02;;
27313;SDS011;14800;48.174;9.798;2022-08-01T10:42:27;1.10;;;0.98;;
27313;SDS011;14800;48.174;9.798;2022-08-01T10:44:53;1.20;;;1.10;;
27313;SDS011;14800;48.174;9.798;2022-08-01T10:47:22;1.15;;;1.00;;
27313;SDS011;14800;48.174;9.798;2022-08-01T10:50:02;1.08;;;1.02;;
27313;SDS011;14800;48.174;9.798;2022-08-01T10:52:36;1.58;;;1.02;;
27313;SDS011;14800;48.174;9.798;2022-08-01T10:55:05;1.15;;;1.15;;
27313;SDS011;14800;48.174;9.798;2022-08-01T10:57:41;1.33;;;1.23;;
27313;SDS011;14800;48.174;9.798;2022-08-01T11:00:17;1.30;;;1.20;;
27313;SDS011;14800;48.174;9.798;2022-08-01T11:05:30;0.88;;;0.85;;
27313;SDS011;14800;48.174;9.798;2022-08-01T11:07:58;1.10;;;1.00;;
27313;SDS011;14800;48.174;9.798;2022-08-01T11:12:53;1.40;;;1.30;;
27313;SDS011;14800;48.174;9.798;2022-08-01T11:15:19;1.05;;;0.95;;
27313;SDS011;14800;48.174;9.798;2022-08-01T11:17:55;1.95;;;1.20;;
27313;SDS011;14800;48.174;9.798;2022-08-01T11:20:23;1.48;;;1.25;;
27313;SDS011;14800;48.174;9.798;2022-08-01T11:26:11;1.02;;;1.02;;
27313;SDS011;14800;48.174;9.798;2022-08-01T11:30:41;1.02;;;1.00;;
27313;SDS011;14800;48.174;9.798;2022-08-01T11:38:43;3.22;;;1.40;;
27313;SDS011;14800;48.174;9.798;2022-08-01T11:41:28;3.15;;;1.20;;
27313;SDS011;14800;48.174;9.798;2022-08-01T11:49:23;1.27;;;1.17;;
27313;SDS011;14800;48.174;9.798;2022-08-01T11:54:38;1.40;;;1.30;;
27313;SDS011;14800;48.174;9.798;2022-08-01T11:57:06;4.03;;;1.50;;
27313;SDS011;14800;48.174;9.798;2022-08-01T11:59:43;1.70;;;1.20;;
27313;SDS011;14800;48.174;9.798;2022-08-01T12:02:16;1.20;;;1.10;;
27313;SDS011;14800;48.174;9.798;2022-08-01T12:04:57;1.10;;;1.10;;
27313;SDS011;14800;48.174;9.798;2022-08-01T12:07:26;1.40;;;1.30;;
27313;SDS011;14800;48.174;9.798;2022-08-01T12:10:12;1.30;;;1.20;;
27313;SDS011;14800;48.174;9.798;2022-08-01T12:12:46;2.55;;;1.08;;
27313;SDS011;14800;48.174;9.798;2022-08-01T12:15:17;1.50;;;1.23;;
27313;SDS011;14800;48.174;9.798;2022-08-01T12:17:45;1.60;;;1.40;;
27313;SDS011;14800;48.174;9.798;2022-08-01T12:20:19;2.17;;;1.33;;
27313;SDS011;14800;48.174;9.798;2022-08-01T12:22:45;1.13;;;1.10;;
27313;SDS011;14800;48.174;9.798;2022-08-01T12:25:12;1.52;;;1.40;;
27313;SDS011;14800;48.174;9.798;2022-08-01T12:27:40;1.25;;;1.15;;
27313;SDS011;14800;48.174;9.798;2022-08-01T12:30:09;5.60;;;1.40;;
27313;SDS011;14800;48.174;9.798;2022-08-01T12:32:37;1.20;;;1.10;;
27313;SDS011;14800;48.174;9.798;2022-08-01T12:35:05;1.10;;;1.10;;
27313;SDS011;14800;48.174;9.798;2022-08-01T12:37:44;3.33;;;1.25;;
27313;SDS011;14800;48.174;9.798;2022-08-01T12:40:12;2.08;;;1.40;;
27313;SDS011;14800;48.174;9.798;2022-08-01T12:42:43;1.40;;;1.30;;
27313;SDS011;14800;48.174;9.798;2022-08-01T12:45:11;1.40;;;1.30;;
27313;SDS011;14800;48.174;9.798;2022-08-01T12:47:39;1.52;;;1.42;;
27313;SDS011;14800;48.174;9.798;2022-08-01T12:50:05;2.47;;;1.27;;
27313;SDS011;14800;48.174;9.798;2022-08-01T12:52:46;2.13;;;1.40;;
27313;SDS011;14800;48.174;9.798;2022-08-01T12:57:49;3.38;;;1.33;;
27313;SDS011;14800;48.174;9.798;2022-08-01T13:00:27;4.53;;;1.30;;
27313;SDS011;14800;48.174;9.798;2022-08-01T13:03:01;1.50;;;1.40;;
27313;SDS011;14800;48.174;9.798;2022-08-01T13:08:14;1.60;;;1.30;;
27313;SDS011;14800;48.174;9.798;2022-08-01T13:10:44;1.70;;;1.45;;
27313;SDS011;14800;48.174;9.798;2022-08-01T13:13:10;4.03;;;1.77;;
27313;SDS011;14800;48.174;9.798;2022-08-01T13:15:38;2.30;;;1.58;;
27313;SDS011;14800;48.174;9.798;2022-08-01T13:21:06;1.92;;;1.83;;
27313;SDS011;14800;48.174;9.798;2022-08-01T13:26:44;2.93;;;1.90;;
27313;SDS011;14800;48.174;9.798;2022-08-01T13:29:18;2.15;;;1.85;;
27313;SDS011;14800;48.174;9.798;2022-08-01T13:31:45;2.05;;;1.95;;
27313;SDS011;14800;48.174;9.798;2022-08-01T13:34:11;2.42;;;1.80;;
27313;SDS011;14800;48.174;9.798;2022-08-01T13:36:37;2.08;;;1.88;;
27313;SDS011;14800;48.174;9.798;2022-08-01T13:39:04;2.72;;;2.22;;
27313;SDS011;14800;48.174;9.798;2022-08-01T13:41:48;2.75;;;1.88;;
27313;SDS011;14800;48.174;9.798;2022-08-01T13:44:14;2.08;;;1.80;;
27313;SDS011;14800;48.174;9.798;2022-08-01T13:46:40;2.63;;;1.90;;
27313;SDS011;14800;48.174;9.798;2022-08-01T13:49:08;2.25;;;1.83;;
27313;SDS011;14800;48.174;9.798;2022-08-01T13:51:35;2.05;;;1.85;;
27313;SDS011;14800;48.174;9.798;2022-08-01T13:54:01;3.15;;;2.05;;
27313;SDS011;14800;48.174;9.798;2022-08-01T13:56:27;2.42;;;2.03;;
27313;SDS011;14800;48.174;9.798;2022-08-01T13:58:54;2.58;;;1.90;;
27313;SDS011;14800;48.174;9.798;2022-08-01T14:01:20;5.90;;;2.63;;
27313;SDS011;14800;48.174;9.798;2022-08-01T14:03:46;2.00;;;1.88;;
27313;SDS011;14800;48.174;9.798;2022-08-01T14:06:12;4.18;;;1.90;;
27313;SDS011;14800;48.174;9.798;2022-08-01T14:08:40;1.83;;;1.73;;
27313;SDS011;14800;48.174;9.798;2022-08-01T14:11:06;1.85;;;1.73;;
27313;SDS011;14800;48.174;9.798;2022-08-01T14:13:32;3.17;;;2.05;;
27313;SDS011;14800;48.174;9.798;2022-08-01T14:15:58;2.60;;;1.90;;
27313;SDS011;14800;48.174;9.798;2022-08-01T14:18:24;2.22;;;1.88;;
27313;SDS011;14800;48.174;9.798;2022-08-01T14:20:50;3.22;;;2.10;;
27313;SDS011;14800;48.174;9.798;2022-08-01T14:23:16;2.60;;;1.98;;
27313;SDS011;14800;48.174;9.798;2022-08-01T14:25:42;2.92;;;2.10;;
27313;SDS011;14800;48.174;9.798;2022-08-01T14:28:08;5.10;;;2.83;;
27313;SDS011;14800;48.174;9.798;2022-08-01T14:30:34;2.63;;;2.38;;
27313;SDS011;14800;48.174;9.798;2022-08-01T14:33:00;6.90;;;2.80;;
27313;SDS011;14800;48.174;9.798;2022-08-01T14:35:25;4.28;;;2.25;;
27313;SDS011;14800;48.174;9.798;2022-08-01T14:37:51;2.72;;;2.30;;
27313;SDS011;14800;48.174;9.798;2022-08-01T14:40:17;3.67;;;2.05;;
27313;SDS011;14800;48.174;9.798;2022-08-01T14:42:43;2.45;;;2.15;;
27313;SDS011;14800;48.174;9.798;2022-08-01T14:45:09;2.83;;;2.38;;
27313;SDS011;14800;48.174;9.798;2022-08-01T14:47:36;3.08;;;2.30;;
27313;SDS011;14800;48.174;9.798;2022-08-01T14:50:04;3.20;;;2.38;;
27313;SDS011;14800;48.174;9.798;2022-08-01T14:52:31;3.75;;;2.40;;
27313;SDS011;14800;48.174;9.798;2022-08-01T14:54:57;2.97;;;2.25;;
27313;SDS011;14800;48.174;9.798;2022-08-01T14:57:23;3.53;;;2.67;;
27313;SDS011;14800;48.174;9.798;2022-08-01T14:59:49;2.42;;;2.22;;
27313;SDS011;14800;48.174;9.798;2022-08-01T15:02:14;2.65;;;2.42;;
27313;SDS011;14800;48.174;9.798;2022-08-01T15:04:42;2.97;;;2.60;;
27313;SDS011;14800;48.174;9.798;2022-08-01T15:07:09;4.10;;;2.20;;
27313;SDS011;14800;48.174;9.798;2022-08-01T15:09:35;3.28;;;2.50;;
27313;SDS011;14800;48.174;9.798;2022-08-01T15:12:01;2.85;;;2.60;;
27313;SDS011;14800;48.174;9.798;2022-08-01T15:14:26;4.07;;;2.50;;
27313;SDS011;14800;48.174;9.798;2022-08-01T15:17:11;2.67;;;2.42;;
27313;SDS011;14800;48.174;9.798;2022-08-01T15:19:36;3.97;;;2.45;;
27313;SDS011;14800;48.174;9.798;2022-08-01T15:22:03;3.00;;;2.60;;
27313;SDS011;14800;48.174;9.798;2022-08-01T15:24:29;2.13;;;1.92;;
27313;SDS011;14800;48.174;9.798;2022-08-01T15:26:54;2.05;;;1.50;;
27313;SDS011;14800;48.174;9.798;2022-08-01T15:29:20;1.48;;;1.38;;
27313;SDS011;14800;48.174;9.798;2022-08-01T15:31:45;1.70;;;1.60;;
27313;SDS011;14800;48.174;9.798;2022-08-01T15:34:11;2.45;;;1.40;;
27313;SDS011;14800;48.174;9.798;2022-08-01T15:36:37;3.60;;;2.08;;
27313;SDS011;14800;48.174;9.798;2022-08-01T15:39:02;2.25;;;2.08;;
27313;SDS011;14800;48.174;9.798;2022-08-01T15:41:28;2.15;;;1.95;;
27313;SDS011;14800;48.174;9.798;2022-08-01T15:43:54;2.78;;;1.83;;
27313;SDS011;14800;48.174;9.798;2022-08-01T15:46:19;5.32;;;2.20;;